sensor_id;sensor_type;location;lat;lon;timestamp;pressure;altitude;pressure_sealevel;temperature;humidity
30343;BME280;17145;49.902;8.680;'2023-03-01 00:57:55';101200;;;1;39
30343;BME280;17145;49.902;8.680;'2023-03-01 01:00:22';101200;;;1;39
30343;BME280;17145;49.902;8.680;'2023-03-01 01:02:50';101200;;;1;39
30343;BME280;17145;49.902;8.680;'2023-03-01 01:05:17';101210;;;1;39
30343;BME280;17145;49.902;8.680;'2023-03-01 01:07:45';101210;;;1;39
30343;BME280;17145;49.902;8.680;'2023-03-01 01:10:12';101210;;;1;39
30343;BME280;17145;49.902;8.680;'2023-03-01 01:12:40';101210;;;1;39
30343;BME280;17145;49.902;8.680;'2023-03-01 01:15:09';101210;;;1;39
30343;BME280;17145;49.902;8.680;'2023-03-01 01:17:37';101210;;;1;39
30343;BME280;17145;49.902;8.680;'2023-03-01 01:20:06';101210;;;0;40
30343;BME280;17145;49.902;8.680;'2023-03-01 01:22:33';101210;;;1;40
30343;BME280;17145;49.902;8.680;'2023-03-01 01:25:01';101210;;;1;40
30343;BME280;17145;49.902;8.680;'2023-03-01 01:27:28';101210;;;0;40
30343;BME280;17145;49.902;8.680;'2023-03-01 01:29:55';101200;;;1;39
30343;BME280;17145;49.902;8.680;'2023-03-01 01:32:24';101200;;;1;39
30343;BME280;17145;49.902;8.680;'2023-03-01 01:34:51';101200;;;1;40
30343;BME280;17145;49.902;8.680;'2023-03-01 01:37:18';101190;;;1;39
30343;BME280;17145;49.902;8.680;'2023-03-01 01:39:46';101190;;;1;39
30343;BME280;17145;49.902;8.680;'2023-03-01 01:42:13';101180;;;1;39
30343;BME280;17145;49.902;8.680;'2023-03-01 01:44:41';101180;;;1;39
30343;BME280;17145;49.902;8.680;'2023-03-01 01:47:08';101180;;;0;39
30343;BME280;17145;49.902;8.680;'2023-03-01 01:49:36';101180;;;0;40
30343;BME280;17145;49.902;8.680;'2023-03-01 01:52:03';101180;;;0;39
30343;BME280;17145;49.902;8.680;'2023-03-01 01:54:31';101180;;;0;40
30343;BME280;17145;49.902;8.680;'2023-03-01 01:56:58';101180;;;0;40
30343;BME280;17145;49.902;8.680;'2023-03-01 01:59:25';101180;;;1;40
30343;BME280;17145;49.902;8.680;'2023-03-01 02:01:53';101170;;;0;39
30343;BME280;17145;49.902;8.680;'2023-03-01 02:04:20';101160;;;0;39
30343;BME280;17145;49.902;8.680;'2023-03-01 02:06:48';101160;;;0;39
30343;BME280;17145;49.902;8.680;'2023-03-01 02:09:17';101160;;;0;40
30343;BME280;17145;49.902;8.680;'2023-03-01 02:11:46';101150;;;0;40
30343;BME280;17145;49.902;8.680;'2023-03-01 02:14:14';101150;;;0;40
30343;BME280;17145;49.902;8.680;'2023-03-01 02:16:41';101140;;;0;40
30343;BME280;17145;49.902;8.680;'2023-03-01 02:19:10';101140;;;0;40
30343;BME280;17145;49.902;8.680;'2023-03-01 02:21:37';101140;;;0;40
30343;BME280;17145;49.902;8.680;'2023-03-01 02:24:06';101140;;;0;40
30343;BME280;17145;49.902;8.680;'2023-03-01 02:26:34';101130;;;0;40
30343;BME280;17145;49.902;8.680;'2023-03-01 02:29:03';101130;;;0;40
30343;BME280;17145;49.902;8.680;'2023-03-01 02:31:32';101130;;;0;40
30343;BME280;17145;49.902;8.680;'2023-03-01 02:34:02';101120;;;0;40
30343;BME280;17145;49.902;8.680;'2023-03-01 02:36:31';101130;;;0;41
30343;BME280;17145;49.902;8.680;'2023-03-01 02:38:59';101120;;;0;41
30343;BME280;17145;49.902;8.680;'2023-03-01 02:41:28';101120;;;0;41
30343;BME280;17145;49.902;8.680;'2023-03-01 02:44:10';101120;;;0;41
30343;BME280;17145;49.902;8.680;'2023-03-01 02:46:41';101120;;;0;42
30343;BME280;17145;49.902;8.680;'2023-03-01 02:49:19';101120;;;0;42
30343;BME280;17145;49.902;8.680;'2023-03-01 02:51:50';101120;;;0;42
30343;BME280;17145;49.902;8.680;'2023-03-01 02:54:23';101120;;;0;41
30343;BME280;17145;49.902;8.680;'2023-03-01 02:56:57';101120;;;0;41
30343;BME280;17145;49.902;8.680;'2023-03-01 02:59:26';101120;;;0;41
30343;BME280;17145;49.902;8.680;'2023-03-01 03:01:54';101120;;;0;41
30343;BME280;17145;49.902;8.680;'2023-03-01 03:04:22';101120;;;0;42
30343;BME280;17145;49.902;8.680;'2023-03-01 03:06:57';101120;;;0;41
30343;BME280;17145;49.902;8.680;'2023-03-01 03:09:25';101120;;;0;41
30343;BME280;17145;49.902;8.680;'2023-03-01 03:11:53';101120;;;0;41
30343;BME280;17145;49.902;8.680;'2023-03-01 03:14:21';101120;;;0;41
30343;BME280;17145;49.902;8.680;'2023-03-01 03:16:49';101120;;;0;42
30343;BME280;17145;49.902;8.680;'2023-03-01 03:19:29';101120;;;0;42
30343;BME280;17145;49.902;8.680;'2023-03-01 03:22:06';101120;;;0;41
30343;BME280;17145;49.902;8.680;'2023-03-01 03:24:45';101110;;;0;41
30343;BME280;17145;49.902;8.680;'2023-03-01 03:27:12';101110;;;0;41
30343;BME280;17145;49.902;8.680;'2023-03-01 03:29:40';101110;;;0;41
30343;BME280;17145;49.902;8.680;'2023-03-01 03:32:07';101100;;;0;42
30343;BME280;17145;49.902;8.680;'2023-03-01 03:34:35';101100;;;0;41
30343;BME280;17145;49.902;8.680;'2023-03-01 03:37:08';101100;;;0;42
30343;BME280;17145;49.902;8.680;'2023-03-01 03:39:42';101100;;;0;42
30343;BME280;17145;49.902;8.680;'2023-03-01 03:42:13';101090;;;0;41
30343;BME280;17145;49.902;8.680;'2023-03-01 03:44:41';101090;;;0;41
30343;BME280;17145;49.902;8.680;'2023-03-01 03:47:10';101080;;;0;41
30343;BME280;17145;49.902;8.680;'2023-03-01 03:49:38';101080;;;0;41
30343;BME280;17145;49.902;8.680;'2023-03-01 03:52:21';101080;;;0;41
30343;BME280;17145;49.902;8.680;'2023-03-01 03:54:54';101080;;;0;41
30343;BME280;17145;49.902;8.680;'2023-03-01 03:57:24';101070;;;0;42
30343;BME280;17145;49.902;8.680;'2023-03-01 03:59:54';101070;;;0;42
30343;BME280;17145;49.902;8.680;'2023-03-01 04:02:25';101070;;;0;42
30343;BME280;17145;49.902;8.680;'2023-03-01 04:04:52';101060;;;0;42
30343;BME280;17145;49.902;8.680;'2023-03-01 04:07:19';101060;;;0;42
30343;BME280;17145;49.902;8.680;'2023-03-01 04:09:47';101060;;;0;42
30343;BME280;17145;49.902;8.680;'2023-03-01 04:12:15';101050;;;0;42
30343;BME280;17145;49.902;8.680;'2023-03-01 04:14:42';101050;;;0;42
30343;BME280;17145;49.902;8.680;'2023-03-01 04:17:10';101050;;;0;41
30343;BME280;17145;49.902;8.680;'2023-03-01 04:19:37';101050;;;0;41
30343;BME280;17145;49.902;8.680;'2023-03-01 04:22:05';101040;;;0;42
30343;BME280;17145;49.902;8.680;'2023-03-01 04:24:33';101040;;;0;42
30343;BME280;17145;49.902;8.680;'2023-03-01 04:27:00';101040;;;0;42
30343;BME280;17145;49.902;8.680;'2023-03-01 04:29:28';101040;;;0;42
30343;BME280;17145;49.902;8.680;'2023-03-01 04:31:55';101040;;;0;42
30343;BME280;17145;49.902;8.680;'2023-03-01 04:34:23';101030;;;0;42
30343;BME280;17145;49.902;8.680;'2023-03-01 04:36:53';101030;;;0;42
30343;BME280;17145;49.902;8.680;'2023-03-01 04:39:20';101030;;;0;42
30343;BME280;17145;49.902;8.680;'2023-03-01 04:41:48';101030;;;0;42
30343;BME280;17145;49.902;8.680;'2023-03-01 04:44:15';101030;;;0;42
30343;BME280;17145;49.902;8.680;'2023-03-01 04:46:42';101020;;;0;42
30343;BME280;17145;49.902;8.680;'2023-03-01 04:49:10';101020;;;0;42
30343;BME280;17145;49.902;8.680;'2023-03-01 04:51:37';101020;;;0;42
30343;BME280;17145;49.902;8.680;'2023-03-01 04:54:04';101020;;;0;42
30343;BME280;17145;49.902;8.680;'2023-03-01 04:56:32';101010;;;0;42
30343;BME280;17145;49.902;8.680;'2023-03-01 04:58:59';101020;;;0;42
30343;BME280;17145;49.902;8.680;'2023-03-01 05:01:26';101020;;;0;42
30343;BME280;17145;49.902;8.680;'2023-03-01 05:03:54';101020;;;0;42
30343;BME280;17145;49.902;8.680;'2023-03-01 05:06:22';101010;;;0;42
30343;BME280;17145;49.902;8.680;'2023-03-01 05:08:49';101010;;;0;42
30343;BME280;17145;49.902;8.680;'2023-03-01 05:11:16';101010;;;0;42
30343;BME280;17145;49.902;8.680;'2023-03-01 05:13:44';101010;;;0;42
30343;BME280;17145;49.902;8.680;'2023-03-01 05:16:11';101020;;;0;42
30343;BME280;17145;49.902;8.680;'2023-03-01 05:18:39';101020;;;0;42
30343;BME280;17145;49.902;8.680;'2023-03-01 05:21:06';101020;;;0;42
30343;BME280;17145;49.902;8.680;'2023-03-01 05:23:34';101020;;;0;42
30343;BME280;17145;49.902;8.680;'2023-03-01 05:26:02';101020;;;0;42
30343;BME280;17145;49.902;8.680;'2023-03-01 05:28:31';101020;;;0;42
30343;BME280;17145;49.902;8.680;'2023-03-01 05:31:03';101020;;;0;42
30343;BME280;17145;49.902;8.680;'2023-03-01 05:33:30';101020;;;0;42
30343;BME280;17145;49.902;8.680;'2023-03-01 05:35:57';101010;;;0;42
30343;BME280;17145;49.902;8.680;'2023-03-01 05:38:25';101010;;;0;42
30343;BME280;17145;49.902;8.680;'2023-03-01 05:40:52';101000;;;0;42
30343;BME280;17145;49.902;8.680;'2023-03-01 05:43:19';101000;;;0;42
30343;BME280;17145;49.902;8.680;'2023-03-01 05:45:47';101000;;;0;42
30343;BME280;17145;49.902;8.680;'2023-03-01 05:48:14';101000;;;0;42
30343;BME280;17145;49.902;8.680;'2023-03-01 05:50:42';101000;;;0;42
30343;BME280;17145;49.902;8.680;'2023-03-01 05:53:09';101000;;;0;42
30343;BME280;17145;49.902;8.680;'2023-03-01 05:55:37';101000;;;0;42
30343;BME280;17145;49.902;8.680;'2023-03-01 05:58:05';101000;;;0;42
30343;BME280;17145;49.902;8.680;'2023-03-01 06:00:32';101000;;;0;42
30343;BME280;17145;49.902;8.680;'2023-03-01 06:03:00';101010;;;0;42
30343;BME280;17145;49.902;8.680;'2023-03-01 06:05:31';101000;;;0;42
30343;BME280;17145;49.902;8.680;'2023-03-01 06:08:01';101000;;;0;42
30343;BME280;17145;49.902;8.680;'2023-03-01 06:10:30';101000;;;0;42
30343;BME280;17145;49.902;8.680;'2023-03-01 06:12:59';101000;;;0;42
30343;BME280;17145;49.902;8.680;'2023-03-01 06:15:28';101000;;;0;42
30343;BME280;17145;49.902;8.680;'2023-03-01 06:17:58';101000;;;0;42
30343;BME280;17145;49.902;8.680;'2023-03-01 06:20:26';101000;;;0;42
30343;BME280;17145;49.902;8.680;'2023-03-01 06:22:57';101000;;;0;42
30343;BME280;17145;49.902;8.680;'2023-03-01 06:25:24';101000;;;0;42
30343;BME280;17145;49.902;8.680;'2023-03-01 06:27:52';100990;;;0;42
30343;BME280;17145;49.902;8.680;'2023-03-01 06:30:19';100990;;;0;42
30343;BME280;17145;49.902;8.680;'2023-03-01 06:32:49';100990;;;0;42
30343;BME280;17145;49.902;8.680;'2023-03-01 06:35:17';100990;;;0;42
30343;BME280;17145;49.902;8.680;'2023-03-01 06:37:47';100990;;;0;42
30343;BME280;17145;49.902;8.680;'2023-03-01 06:40:17';100990;;;0;42
30343;BME280;17145;49.902;8.680;'2023-03-01 06:42:47';100990;;;0;42
30343;BME280;17145;49.902;8.680;'2023-03-01 06:45:16';100990;;;0;42
30343;BME280;17145;49.902;8.680;'2023-03-01 06:47:45';100990;;;0;42
30343;BME280;17145;49.902;8.680;'2023-03-01 06:50:15';100990;;;0;42
30343;BME280;17145;49.902;8.680;'2023-03-01 06:52:43';100990;;;0;42
30343;BME280;17145;49.902;8.680;'2023-03-01 06:55:10';100980;;;0;42
30343;BME280;17145;49.902;8.680;'2023-03-01 06:57:38';100980;;;0;42
30343;BME280;17145;49.902;8.680;'2023-03-01 07:00:06';100980;;;0;42
30343;BME280;17145;49.902;8.680;'2023-03-01 07:02:34';100980;;;0;42
30343;BME280;17145;49.902;8.680;'2023-03-01 07:05:01';100980;;;0;42
30343;BME280;17145;49.902;8.680;'2023-03-01 07:07:28';100980;;;0;42
30343;BME280;17145;49.902;8.680;'2023-03-01 07:09:56';100990;;;0;42
30343;BME280;17145;49.902;8.680;'2023-03-01 07:12:23';100990;;;0;42
30343;BME280;17145;49.902;8.680;'2023-03-01 07:14:51';100990;;;0;42
30343;BME280;17145;49.902;8.680;'2023-03-01 07:17:18';100990;;;0;42
30343;BME280;17145;49.902;8.680;'2023-03-01 07:19:46';100990;;;0;42
30343;BME280;17145;49.902;8.680;'2023-03-01 07:22:14';100990;;;0;42
30343;BME280;17145;49.902;8.680;'2023-03-01 07:24:41';100990;;;0;42
30343;BME280;17145;49.902;8.680;'2023-03-01 07:27:08';100980;;;0;42
30343;BME280;17145;49.902;8.680;'2023-03-01 07:29:36';100980;;;0;42
30343;BME280;17145;49.902;8.680;'2023-03-01 07:32:03';100980;;;0;42
30343;BME280;17145;49.902;8.680;'2023-03-01 07:34:31';100980;;;0;42
30343;BME280;17145;49.902;8.680;'2023-03-01 07:36:58';100980;;;0;42
30343;BME280;17145;49.902;8.680;'2023-03-01 07:39:27';100980;;;0;42
30343;BME280;17145;49.902;8.680;'2023-03-01 07:41:55';100980;;;1;41
30343;BME280;17145;49.902;8.680;'2023-03-01 07:44:22';100980;;;0;41
30343;BME280;17145;49.902;8.680;'2023-03-01 07:46:49';100980;;;1;41
30343;BME280;17145;49.902;8.680;'2023-03-01 07:49:17';100990;;;1;41
30343;BME280;17145;49.902;8.680;'2023-03-01 07:51:44';100990;;;1;41
30343;BME280;17145;49.902;8.680;'2023-03-01 07:54:12';100990;;;0;41
30343;BME280;17145;49.902;8.680;'2023-03-01 07:56:40';100990;;;1;41
30343;BME280;17145;49.902;8.680;'2023-03-01 07:59:07';100990;;;1;41
30343;BME280;17145;49.902;8.680;'2023-03-01 08:01:35';100980;;;1;41
30343;BME280;17145;49.902;8.680;'2023-03-01 08:04:02';100990;;;1;41
30343;BME280;17145;49.902;8.680;'2023-03-01 08:06:30';100990;;;1;41
30343;BME280;17145;49.902;8.680;'2023-03-01 08:08:57';100980;;;1;41
30343;BME280;17145;49.902;8.680;'2023-03-01 08:11:24';100980;;;1;41
30343;BME280;17145;49.902;8.680;'2023-03-01 08:13:52';100980;;;1;41
30343;BME280;17145;49.902;8.680;'2023-03-01 08:16:19';100980;;;1;41
30343;BME280;17145;49.902;8.680;'2023-03-01 08:18:47';100970;;;1;41
30343;BME280;17145;49.902;8.680;'2023-03-01 08:21:15';100970;;;1;40
30343;BME280;17145;49.902;8.680;'2023-03-01 08:23:47';100970;;;1;40
30343;BME280;17145;49.902;8.680;'2023-03-01 08:26:14';100970;;;1;40
30343;BME280;17145;49.902;8.680;'2023-03-01 08:28:42';100970;;;1;40
30343;BME280;17145;49.902;8.680;'2023-03-01 08:31:10';100970;;;1;40
30343;BME280;17145;49.902;8.680;'2023-03-01 08:33:37';100970;;;1;40
30343;BME280;17145;49.902;8.680;'2023-03-01 08:36:06';100970;;;1;40
30343;BME280;17145;49.902;8.680;'2023-03-01 08:38:33';100970;;;1;40
30343;BME280;17145;49.902;8.680;'2023-03-01 08:41:03';100960;;;1;40
30343;BME280;17145;49.902;8.680;'2023-03-01 08:43:31';100960;;;1;40
30343;BME280;17145;49.902;8.680;'2023-03-01 08:45:59';100960;;;1;40
30343;BME280;17145;49.902;8.680;'2023-03-01 08:48:27';100960;;;1;40
30343;BME280;17145;49.902;8.680;'2023-03-01 08:50:54';100950;;;1;40
30343;BME280;17145;49.902;8.680;'2023-03-01 08:53:21';100950;;;1;40
30343;BME280;17145;49.902;8.680;'2023-03-01 08:55:48';100940;;;2;39
30343;BME280;17145;49.902;8.680;'2023-03-01 08:58:16';100940;;;1;39
30343;BME280;17145;49.902;8.680;'2023-03-01 09:00:43';100940;;;1;39
30343;BME280;17145;49.902;8.680;'2023-03-01 09:03:11';100940;;;2;39
30343;BME280;17145;49.902;8.680;'2023-03-01 09:05:38';100940;;;2;39
30343;BME280;17145;49.902;8.680;'2023-03-01 09:08:05';100940;;;2;39
30343;BME280;17145;49.902;8.680;'2023-03-01 09:10:33';100940;;;2;39
30343;BME280;17145;49.902;8.680;'2023-03-01 09:13:01';100940;;;2;39
30343;BME280;17145;49.902;8.680;'2023-03-01 09:15:28';100940;;;2;39
30343;BME280;17145;49.902;8.680;'2023-03-01 09:17:56';100940;;;2;39
30343;BME280;17145;49.902;8.680;'2023-03-01 09:20:23';100940;;;2;38
30343;BME280;17145;49.902;8.680;'2023-03-01 09:22:51';100940;;;2;38
30343;BME280;17145;49.902;8.680;'2023-03-01 09:25:20';100940;;;2;38
30343;BME280;17145;49.902;8.680;'2023-03-01 09:27:47';100930;;;2;38
30343;BME280;17145;49.902;8.680;'2023-03-01 09:30:15';100920;;;3;38
30343;BME280;17145;49.902;8.680;'2023-03-01 09:32:43';100920;;;2;38
30343;BME280;17145;49.902;8.680;'2023-03-01 09:35:11';100920;;;2;38
30343;BME280;17145;49.902;8.680;'2023-03-01 09:37:38';100920;;;3;38
30343;BME280;17145;49.902;8.680;'2023-03-01 09:40:08';100920;;;2;38
30343;BME280;17145;49.902;8.680;'2023-03-01 09:42:36';100920;;;3;37
30343;BME280;17145;49.902;8.680;'2023-03-01 09:45:05';100920;;;3;37
30343;BME280;17145;49.902;8.680;'2023-03-01 09:47:33';100920;;;3;37
30343;BME280;17145;49.902;8.680;'2023-03-01 09:50:01';100920;;;2;37
30343;BME280;17145;49.902;8.680;'2023-03-01 09:52:28';100910;;;3;37
30343;BME280;17145;49.902;8.680;'2023-03-01 09:54:56';100910;;;3;37
30343;BME280;17145;49.902;8.680;'2023-03-01 09:57:25';100900;;;3;37
30343;BME280;17145;49.902;8.680;'2023-03-01 09:59:53';100900;;;3;37
30343;BME280;17145;49.902;8.680;'2023-03-01 10:02:22';100900;;;3;37
30343;BME280;17145;49.902;8.680;'2023-03-01 10:04:49';100900;;;3;37
30343;BME280;17145;49.902;8.680;'2023-03-01 10:07:19';100890;;;3;37
30343;BME280;17145;49.902;8.680;'2023-03-01 10:09:48';100900;;;2;37
30343;BME280;17145;49.902;8.680;'2023-03-01 10:12:16';100890;;;3;38
30343;BME280;17145;49.902;8.680;'2023-03-01 10:14:44';100890;;;3;37
30343;BME280;17145;49.902;8.680;'2023-03-01 10:17:11';100880;;;3;37
30343;BME280;17145;49.902;8.680;'2023-03-01 10:19:39';100880;;;4;37
30343;BME280;17145;49.902;8.680;'2023-03-01 10:22:07';100880;;;4;36
30343;BME280;17145;49.902;8.680;'2023-03-01 10:24:34';100880;;;4;36
30343;BME280;17145;49.902;8.680;'2023-03-01 10:27:02';100880;;;4;36
30343;BME280;17145;49.902;8.680;'2023-03-01 10:29:30';100880;;;4;36
30343;BME280;17145;49.902;8.680;'2023-03-01 10:31:58';100870;;;4;35
30343;BME280;17145;49.902;8.680;'2023-03-01 10:34:25';100870;;;4;35
30343;BME280;17145;49.902;8.680;'2023-03-01 10:36:53';100870;;;4;35
30343;BME280;17145;49.902;8.680;'2023-03-01 10:39:20';100860;;;4;35
30343;BME280;17145;49.902;8.680;'2023-03-01 10:41:56';100860;;;4;35
30343;BME280;17145;49.902;8.680;'2023-03-01 10:44:31';100860;;;4;35
30343;BME280;17145;49.902;8.680;'2023-03-01 10:47:00';100860;;;4;35
30343;BME280;17145;49.902;8.680;'2023-03-01 10:49:30';100860;;;4;35
30343;BME280;17145;49.902;8.680;'2023-03-01 10:52:03';100850;;;4;35
30343;BME280;17145;49.902;8.680;'2023-03-01 10:54:31';100850;;;4;35
30343;BME280;17145;49.902;8.680;'2023-03-01 10:57:10';100850;;;5;35
30343;BME280;17145;49.902;8.680;'2023-03-01 10:59:49';100850;;;4;34
30343;BME280;17145;49.902;8.680;'2023-03-01 11:02:27';100840;;;4;34
30343;BME280;17145;49.902;8.680;'2023-03-01 11:05:05';100840;;;4;34
30343;BME280;17145;49.902;8.680;'2023-03-01 11:07:43';100840;;;4;35
30343;BME280;17145;49.902;8.680;'2023-03-01 11:10:21';100840;;;4;34
30343;BME280;17145;49.902;8.680;'2023-03-01 11:12:50';100830;;;5;34
30343;BME280;17145;49.902;8.680;'2023-03-01 11:15:22';100830;;;5;34
30343;BME280;17145;49.902;8.680;'2023-03-01 11:17:57';100830;;;5;34
30343;BME280;17145;49.902;8.680;'2023-03-01 11:20:29';100830;;;5;34
30343;BME280;17145;49.902;8.680;'2023-03-01 11:22:57';100830;;;6;33
30343;BME280;17145;49.902;8.680;'2023-03-01 11:25:41';100820;;;6;33
30343;BME280;17145;49.902;8.680;'2023-03-01 11:28:16';100810;;;6;32
30343;BME280;17145;49.902;8.680;'2023-03-01 11:30:44';100810;;;6;32
30343;BME280;17145;49.902;8.680;'2023-03-01 11:33:20';100810;;;6;31
30343;BME280;17145;49.902;8.680;'2023-03-01 11:35:48';100810;;;6;32
30343;BME280;17145;49.902;8.680;'2023-03-01 11:38:17';100800;;;6;31
30343;BME280;17145;49.902;8.680;'2023-03-01 11:40:53';100800;;;6;32
30343;BME280;17145;49.902;8.680;'2023-03-01 11:43:22';100790;;;6;31
30343;BME280;17145;49.902;8.680;'2023-03-01 11:45:49';100790;;;6;31
30343;BME280;17145;49.902;8.680;'2023-03-01 11:48:20';100790;;;6;31
30343;BME280;17145;49.902;8.680;'2023-03-01 11:50:50';100790;;;6;31
30343;BME280;17145;49.902;8.680;'2023-03-01 11:53:27';100780;;;7;32
30343;BME280;17145;49.902;8.680;'2023-03-01 11:56:00';100780;;;7;31
30343;BME280;17145;49.902;8.680;'2023-03-01 11:58:29';100770;;;7;30
30343;BME280;17145;49.902;8.680;'2023-03-01 12:00:59';100770;;;7;31
30343;BME280;17145;49.902;8.680;'2023-03-01 12:03:28';100770;;;7;31
30343;BME280;17145;49.902;8.680;'2023-03-01 12:06:00';100760;;;7;30
30343;BME280;17145;49.902;8.680;'2023-03-01 12:08:39';100760;;;7;30
30343;BME280;17145;49.902;8.680;'2023-03-01 12:11:21';100750;;;7;30
30343;BME280;17145;49.902;8.680;'2023-03-01 12:13:53';100750;;;7;30
30343;BME280;17145;49.902;8.680;'2023-03-01 12:16:29';100750;;;7;29
30343;BME280;17145;49.902;8.680;'2023-03-01 12:19:00';100740;;;7;29
30343;BME280;17145;49.902;8.680;'2023-03-01 12:21:32';100740;;;7;29
30343;BME280;17145;49.902;8.680;'2023-03-01 12:24:03';100740;;;7;30
30343;BME280;17145;49.902;8.680;'2023-03-01 12:26:38';100730;;;7;30
30343;BME280;17145;49.902;8.680;'2023-03-01 12:29:17';100720;;;6;30
30343;BME280;17145;49.902;8.680;'2023-03-01 12:31:47';100720;;;7;30
30343;BME280;17145;49.902;8.680;'2023-03-01 12:34:22';100730;;;7;29
30343;BME280;17145;49.902;8.680;'2023-03-01 12:36:55';100720;;;7;29
30343;BME280;17145;49.902;8.680;'2023-03-01 12:39:31';100720;;;7;29
30343;BME280;17145;49.902;8.680;'2023-03-01 12:42:06';100720;;;7;29
30343;BME280;17145;49.902;8.680;'2023-03-01 12:44:37';100710;;;7;30
30343;BME280;17145;49.902;8.680;'2023-03-01 12:47:20';100710;;;8;28
30343;BME280;17145;49.902;8.680;'2023-03-01 12:50:02';100700;;;7;28
30343;BME280;17145;49.902;8.680;'2023-03-01 12:52:40';100700;;;8;28
30343;BME280;17145;49.902;8.680;'2023-03-01 12:55:23';100700;;;8;28
30343;BME280;17145;49.902;8.680;'2023-03-01 12:58:08';100690;;;8;28
30343;BME280;17145;49.902;8.680;'2023-03-01 13:00:49';100690;;;9;28
30343;BME280;17145;49.902;8.680;'2023-03-01 13:03:33';100690;;;9;27
30343;BME280;17145;49.902;8.680;'2023-03-01 13:06:17';100680;;;8;27
30343;BME280;17145;49.902;8.680;'2023-03-01 13:08:57';100680;;;9;27
30343;BME280;17145;49.902;8.680;'2023-03-01 13:11:36';100680;;;8;27
30343;BME280;17145;49.902;8.680;'2023-03-01 13:14:26';100670;;;9;26
30343;BME280;17145;49.902;8.680;'2023-03-01 13:17:07';100670;;;8;26
30343;BME280;17145;49.902;8.680;'2023-03-01 13:19:50';100670;;;8;27
30343;BME280;17145;49.902;8.680;'2023-03-01 13:22:29';100660;;;8;27
30343;BME280;17145;49.902;8.680;'2023-03-01 13:25:11';100650;;;9;28
30343;BME280;17145;49.902;8.680;'2023-03-01 13:27:55';100640;;;9;27
30343;BME280;17145;49.902;8.680;'2023-03-01 13:30:34';100630;;;9;26
30343;BME280;17145;49.902;8.680;'2023-03-01 13:33:15';100620;;;10;26
30343;BME280;17145;49.902;8.680;'2023-03-01 13:35:59';100610;;;10;25
30343;BME280;17145;49.902;8.680;'2023-03-01 13:38:36';100600;;;9;25
30343;BME280;17145;49.902;8.680;'2023-03-01 13:41:16';100600;;;9;25
30343;BME280;17145;49.902;8.680;'2023-03-01 13:43:58';100600;;;10;25
30343;BME280;17145;49.902;8.680;'2023-03-01 13:46:38';100590;;;10;24
30343;BME280;17145;49.902;8.680;'2023-03-01 13:49:12';100590;;;9;25
30343;BME280;17145;49.902;8.680;'2023-03-01 13:51:44';100590;;;9;25
30343;BME280;17145;49.902;8.680;'2023-03-01 13:54:20';100580;;;9;25
30343;BME280;17145;49.902;8.680;'2023-03-01 13:56:48';100580;;;9;25
30343;BME280;17145;49.902;8.680;'2023-03-01 13:59:23';100580;;;10;24
30343;BME280;17145;49.902;8.680;'2023-03-01 14:01:56';100580;;;10;24
30343;BME280;17145;49.902;8.680;'2023-03-01 14:04:35';100580;;;10;23
30343;BME280;17145;49.902;8.680;'2023-03-01 14:07:15';100580;;;11;24
30343;BME280;17145;49.902;8.680;'2023-03-01 14:15:22';100560;;;11;24
30343;BME280;17145;49.902;8.680;'2023-03-01 14:17:54';100550;;;11;23
30343;BME280;17145;49.902;8.680;'2023-03-01 14:20:27';100550;;;12;23
30343;BME280;17145;49.902;8.680;'2023-03-01 14:23:04';100550;;;12;23
30343;BME280;17145;49.902;8.680;'2023-03-01 14:28:17';100550;;;11;22
30343;BME280;17145;49.902;8.680;'2023-03-01 14:30:47';100550;;;11;23
30343;BME280;17145;49.902;8.680;'2023-03-01 14:33:38';100540;;;11;22
30343;BME280;17145;49.902;8.680;'2023-03-01 14:36:08';100540;;;12;23
30343;BME280;17145;49.902;8.680;'2023-03-01 14:38:46';100530;;;12;22
30343;BME280;17145;49.902;8.680;'2023-03-01 14:41:17';100540;;;11;22
30343;BME280;17145;49.902;8.680;'2023-03-01 14:43:46';100530;;;12;23
30343;BME280;17145;49.902;8.680;'2023-03-01 14:46:19';100520;;;12;22
30343;BME280;17145;49.902;8.680;'2023-03-01 14:48:51';100520;;;12;22
30343;BME280;17145;49.902;8.680;'2023-03-01 14:51:23';100520;;;12;22
30343;BME280;17145;49.902;8.680;'2023-03-01 14:53:53';100520;;;12;22
30343;BME280;17145;49.902;8.680;'2023-03-01 14:56:26';100510;;;13;21
30343;BME280;17145;49.902;8.680;'2023-03-01 14:59:01';100500;;;13;21
30343;BME280;17145;49.902;8.680;'2023-03-01 15:01:30';100500;;;15;21
30343;BME280;17145;49.902;8.680;'2023-03-01 15:03:59';100490;;;15;19
30343;BME280;17145;49.902;8.680;'2023-03-01 15:06:29';100500;;;16;18
30343;BME280;17145;49.902;8.680;'2023-03-01 15:09:08';100490;;;17;18
30343;BME280;17145;49.902;8.680;'2023-03-01 15:11:59';100480;;;18;16
30343;BME280;17145;49.902;8.680;'2023-03-01 15:14:46';100490;;;18;17
30343;BME280;17145;49.902;8.680;'2023-03-01 15:17:32';100480;;;17;17
30343;BME280;17145;49.902;8.680;'2023-03-01 15:20:03';100480;;;18;16
30343;BME280;17145;49.902;8.680;'2023-03-01 15:22:34';100480;;;19;16
30343;BME280;17145;49.902;8.680;'2023-03-01 15:25:04';100470;;;19;16
30343;BME280;17145;49.902;8.680;'2023-03-01 15:27:37';100470;;;19;15
30343;BME280;17145;49.902;8.680;'2023-03-01 15:30:12';100470;;;20;15
30343;BME280;17145;49.902;8.680;'2023-03-01 15:35:17';100460;;;21;14
30343;BME280;17145;49.902;8.680;'2023-03-01 15:37:44';100460;;;19;14
30343;BME280;17145;49.902;8.680;'2023-03-01 15:40:23';100460;;;19;15
30343;BME280;17145;49.902;8.680;'2023-03-01 15:42:52';100470;;;17;16
30343;BME280;17145;49.902;8.680;'2023-03-01 15:45:20';100470;;;17;16